Time;durP1;ratioP1;P1;durP2;ratioP2;P2;SDS_P1;SDS_P2;PMS_P1;PMS_P2;Temp;Humidity;BMP_temperature;BMP_pressure;BME280_temperature;BME280_humidity;BME280_pressure;Samples;Min_cycle;Max_cycle;Signal;HPM_P1;HPM_P2
2023/07/07 00:00:29;;;;;;;;;;;;;;;;;;5034239;28;19920;-88
2023/07/07 00:02:55;;;;;;;;;;;;;;;;;;5050748;28;19921;-89
2023/07/07 00:05:21;;;;;;;;;;;;;;;;;;5051592;28;19921;-89
2023/07/07 00:07:48;;;;;;;;;;;;;;;;;;5050438;28;19966;-88
2023/07/07 00:10:14;;;;;;;;;;;;;;;;;;5050164;28;20495;-88
2023/07/07 00:12:40;;;;;;;;;;;;;;;;;;5051524;28;20019;-88
2023/07/07 00:15:06;;;;;;;;;;;;;;;;;;5053956;28;19970;-89
2023/07/07 00:17:32;;;;;;;;;;;;;;;;;;5036939;28;19978;-88
2023/07/07 00:20:03;;;;;;;;;;;;;;;;;;5055235;28;20396;-88
2023/07/07 00:22:31;;;;;;;;;;;;;;;;;;5055183;28;19966;-88
2023/07/07 00:24:57;;;;;;;;;;;;;;;;;;5037387;28;19932;-89
2023/07/07 00:27:23;;;;;;;;;;;;;;;;;;5053766;28;19925;-89
2023/07/07 00:29:49;;;;;;;;;;;;;;;;;;5053928;28;19928;-89
2023/07/07 00:32:15;;;;;;;;;;;;;;;;;;5037180;28;20003;-89
2023/07/07 00:34:41;;;;;;;;;;;;;;;;;;5053749;28;19921;-89
2023/07/07 00:37:07;;;;;;;;;;;;;;;;;;5054885;28;19928;-89
2023/07/07 00:39:33;;;;;;;;;;;;;;;;;;5053688;28;20388;-89
2023/07/07 00:41:59;;;;;;;;;;;;;;;;;;5053626;28;19921;-89
2023/07/07 00:44:25;;;;;;;;;;;;;;;;;;5053524;28;19928;-89
2023/07/07 00:46:51;;;;;;;;;;;;;;;;;;5053525;28;19931;-89
2023/07/07 00:49:17;;;;;;;;;;;;;;;;;;5054838;28;19927;-90
2023/07/07 00:51:43;;;;;;;;;;;;;;;;;;5054635;28;20362;-89
2023/07/07 00:54:08;;;;;;;;;;;;;;;;;;5054867;28;19925;-88
2023/07/07 00:56:34;;;;;;;;;;;;;;;;;;5054306;28;20004;-89
2023/07/07 00:59:00;;;;;;;;;;;;;;;;;;5054807;28;19920;-89
2023/07/07 01:01:26;;;;;;;;;;;;;;;;;;5053313;28;19925;-89
2023/07/07 01:03:52;;;;;;;;;;;;;;;;;;5053246;28;20057;-89
2023/07/07 01:06:18;;;;;;;;;;;;;;;;;;5054294;28;20283;-89
2023/07/07 01:08:44;;;;;;;;;;;;;;;;;;5054282;28;20380;-89
2023/07/07 01:11:10;;;;;;;;;;;;;;;;;;5054673;28;19920;-89
2023/07/07 01:13:36;;;;;;;;;;;;;;;;;;5054468;28;19948;-88
2023/07/07 01:16:02;;;;;;;;;;;;;;;;;;5053005;28;19925;-87
2023/07/07 01:18:28;;;;;;;;;;;;;;;;;;5036247;28;19973;-88
2023/07/07 01:21:01;;;;;;;;;;;;;;;;;;5053208;28;20001;-88
2023/07/07 01:23:27;;;;;;;;;;;;;;;;;;5036350;28;19920;-89
2023/07/07 01:25:55;;;;;;;;;;;;;;;;;;5035723;28;19952;-89
2023/07/07 01:28:21;;;;;;;;;;;;;;;;;;5054464;28;19924;-89
2023/07/07 01:30:47;;;;;;;;;;;;;;;;;;5035968;28;20376;-88
2023/07/07 01:33:13;;;;;;;;;;;;;;;;;;5052751;28;19921;-89
2023/07/07 01:35:38;;;;;;;;;;;;;;;;;;5052523;28;19921;-89
2023/07/07 01:38:04;;;;;;;;;;;;;;;;;;5052495;28;19921;-89
2023/07/07 01:40:30;;;;;;;;;;;;;;;;;;5052557;28;19956;-89
2023/07/07 01:42:56;;;;;;;;;;;;;;;;;;5054147;28;19932;-90
2023/07/07 01:45:22;;;;;;;;;;;;;;;;;;5054075;28;19947;-90
2023/07/07 01:47:48;;;;;;;;;;;;;;;;;;5036258;28;19970;-90
2023/07/07 01:50:14;;;;;;;;;;;;;;;;;;5036185;28;19921;-90
2023/07/07 01:52:40;;;;;;;;;;;;;;;;;;5035893;28;19920;-88
2023/07/07 01:55:06;;;;;;;;;;;;;;;;;;5052210;28;19924;-89
2023/07/07 01:57:32;;;;;;;;;;;;;;;;;;5053605;28;19921;-89
2023/07/07 01:59:57;;;;;;;;;;;;;;;;;;5052287;28;19921;-88
2023/07/07 02:02:23;;;;;;;;;;;;;;;;;;5052232;28;19921;-88
2023/07/07 02:04:49;;;;;;;;;;;;;;;;;;5053098;28;19975;-89
2023/07/07 02:07:15;;;;;;;;;;;;;;;;;;5051811;28;19987;-88
2023/07/07 02:09:41;;;;;;;;;;;;;;;;;;5051886;28;19924;-88
2023/07/07 02:12:07;;;;;;;;;;;;;;;;;;5051837;28;20378;-88
2023/07/07 02:14:33;;;;;;;;;;;;;;;;;;5053114;28;19928;-87
2023/07/07 02:16:59;;;;;;;;;;;;;;;;;;5051524;28;20400;-87
2023/07/07 02:19:25;;;;;;;;;;;;;;;;;;5052988;28;20011;-88
2023/07/07 02:21:51;;;;;;;;;;;;;;;;;;5051665;28;20011;-88
2023/07/07 02:24:16;;;;;;;;;;;;;;;;;;5052833;28;20340;-89
2023/07/07 02:26:42;;;;;;;;;;;;;;;;;;5051434;28;19925;-89
2023/07/07 02:29:08;;;;;;;;;;;;;;;;;;5051576;28;19925;-88
2023/07/07 02:31:34;;;;;;;;;;;;;;;;;;5051555;28;19928;-89
2023/07/07 02:34:00;;;;;;;;;;;;;;;;;;5052651;28;19920;-88
2023/07/07 02:36:26;;;;;;;;;;;;;;;;;;5050595;28;19932;-89
2023/07/07 02:38:55;;;;;;;;;;;;;;;;;;5051454;28;20383;-89
2023/07/07 02:41:21;;;;;;;;;;;;;;;;;;5052770;28;19989;-89
2023/07/07 02:43:47;;;;;;;;;;;;;;;;;;5051463;28;19924;-89
2023/07/07 02:46:13;;;;;;;;;;;;;;;;;;5051242;28;19946;-90
2023/07/07 02:48:39;;;;;;;;;;;;;;;;;;5051821;28;19927;-90
2023/07/07 02:51:04;;;;;;;;;;;;;;;;;;5034956;28;20327;-89
2023/07/07 02:53:30;;;;;;;;;;;;;;;;;;5051401;28;19943;-88
2023/07/07 02:55:56;;;;;;;;;;;;;;;;;;5052459;28;19929;-89
2023/07/07 02:58:22;;;;;;;;;;;;;;;;;;5052508;28;19920;-89
2023/07/07 03:00:48;;;;;;;;;;;;;;;;;;5034744;28;19928;-89
2023/07/07 03:03:14;;;;;;;;;;;;;;;;;;5052305;28;19978;-89
2023/07/07 03:05:40;;;;;;;;;;;;;;;;;;5051373;28;19921;-89
2023/07/07 03:08:06;;;;;;;;;;;;;;;;;;5051084;28;19925;-90
2023/07/07 03:10:32;;;;;;;;;;;;;;;;;;5034707;28;19920;-89
2023/07/07 03:12:58;;;;;;;;;;;;;;;;;;5051247;28;19971;-90
2023/07/07 03:15:24;;;;;;;;;;;;;;;;;;5052520;28;19920;-90
2023/07/07 03:17:49;;;;;;;;;;;;;;;;;;5034292;28;19925;-90
2023/07/07 03:20:15;;;;;;;;;;;;;;;;;;5052225;28;20401;-89
2023/07/07 03:22:41;;;;;;;;;;;;;;;;;;5051224;28;19921;-89
2023/07/07 03:25:07;;;;;;;;;;;;;;;;;;5052639;28;20318;-90
2023/07/07 03:27:33;;;;;;;;;;;;;;;;;;5051966;28;20284;-88
2023/07/07 03:29:59;;;;;;;;;;;;;;;;;;5052096;28;19928;-88
2023/07/07 03:32:25;;;;;;;;;;;;;;;;;;5050588;28;19920;-88
2023/07/07 03:34:51;;;;;;;;;;;;;;;;;;5051919;28;19920;-88
2023/07/07 03:37:17;;;;;;;;;;;;;;;;;;5050513;28;19921;-88
2023/07/07 03:39:43;;;;;;;;;;;;;;;;;;5052019;28;19983;-87
2023/07/07 03:42:09;;;;;;;;;;;;;;;;;;5050755;28;19994;-88
2023/07/07 03:44:35;;;;;;;;;;;;;;;;;;5050625;28;19956;-89
2023/07/07 03:47:01;;;;;;;;;;;;;;;;;;5052124;28;19979;-88
2023/07/07 03:49:26;;;;;;;;;;;;;;;;;;5055961;28;19971;-88
2023/07/07 03:51:52;;;;;;;;;;;;;;;;;;5054469;28;19966;-88
2023/07/07 03:54:18;;;;;;;;;;;;;;;;;;5037725;28;19933;-88
2023/07/07 03:56:44;;;;;;;;;;;;;;;;;;5054110;28;19924;-87
2023/07/07 03:59:10;;;;;;;;;;;;;;;;;;5037555;28;19998;-88
2023/07/07 04:01:36;;;;;;;;;;;;;;;;;;5054198;28;19925;-89
2023/07/07 04:04:02;;;;;;;;;;;;;;;;;;5055797;28;19979;-88
2023/07/07 04:06:28;;;;;;;;;;;;;;;;;;5055316;28;20309;-88
2023/07/07 04:08:54;;;;;;;;;;;;;;;;;;5054114;28;19920;-88
2023/07/07 04:11:20;;;;;;;;;;;;;;;;;;5037667;28;19971;-89
2023/07/07 04:13:45;;;;;;;;;;;;;;;;;;5054273;28;19921;-89
2023/07/07 04:16:11;;;;;;;;;;;;;;;;;;5054283;28;19927;-89
2023/07/07 04:18:37;;;;;;;;;;;;;;;;;;5055554;28;19948;-89
2023/07/07 04:21:05;;;;;;;;;;;;;;;;;;5054520;28;19921;-89
2023/07/07 04:23:31;;;;;;;;;;;;;;;;;;5038126;28;19990;-89
2023/07/07 04:25:57;;;;;;;;;;;;;;;;;;5037578;28;19929;-89
2023/07/07 04:28:23;;;;;;;;;;;;;;;;;;5053804;28;19921;-89
2023/07/07 04:30:49;;;;;;;;;;;;;;;;;;5053726;28;20020;-88
2023/07/07 04:33:15;;;;;;;;;;;;;;;;;;5053736;28;19946;-89
2023/07/07 04:35:41;;;;;;;;;;;;;;;;;;5054071;28;19925;-89
2023/07/07 04:38:06;;;;;;;;;;;;;;;;;;5053554;28;19929;-88
2023/07/07 04:40:33;;;;;;;;;;;;;;;;;;5055105;28;19967;-88
2023/07/07 04:42:58;;;;;;;;;;;;;;;;;;5053518;28;20284;-89
2023/07/07 04:45:24;;;;;;;;;;;;;;;;;;5054701;28;19921;-88
2023/07/07 04:47:50;;;;;;;;;;;;;;;;;;5053350;28;19952;-89
2023/07/07 04:50:16;;;;;;;;;;;;;;;;;;5053442;28;20021;-89
2023/07/07 04:52:42;;;;;;;;;;;;;;;;;;5049898;28;20004;-88
2023/07/07 04:55:08;;;;;;;;;;;;;;;;;;5046672;28;20028;-88
2023/07/07 04:57:34;;;;;;;;;;;;;;;;;;5053679;28;19920;-88
2023/07/07 05:00:02;;;;;;;;;;;;;;;;;;5035070;28;21406;-88
2023/07/07 05:02:28;;;;;;;;;;;;;;;;;;5052836;28;19921;-88
2023/07/07 05:04:54;;;;;;;;;;;;;;;;;;5053174;28;20331;-88
2023/07/07 05:07:20;;;;;;;;;;;;;;;;;;5052992;28;19925;-88
2023/07/07 05:09:45;;;;;;;;;;;;;;;;;;5052997;28;19920;-88
2023/07/07 05:12:13;;;;;;;;;;;;;;;;;;5052774;28;19986;-89
2023/07/07 05:14:39;;;;;;;;;;;;;;;;;;5036277;28;19920;-90
2023/07/07 05:17:05;;;;;;;;;;;;;;;;;;5036542;28;19921;-89
2023/07/07 05:19:30;;;;;;;;;;;;;;;;;;5055280;28;20368;-89
2023/07/07 05:21:56;;;;;;;;;;;;;;;;;;5053650;28;19932;-88
2023/07/07 05:24:22;;;;;;;;;;;;;;;;;;5052643;28;19920;-88
2023/07/07 05:26:48;;;;;;;;;;;;;;;;;;5052483;28;20066;-88
2023/07/07 05:29:14;;;;;;;;;;;;;;;;;;5054410;28;19920;-88
2023/07/07 05:31:40;;;;;;;;;;;;;;;;;;5054061;28;20355;-88
2023/07/07 05:34:06;;;;;;;;;;;;;;;;;;5036155;28;19925;-86
2023/07/07 05:36:32;;;;;;;;;;;;;;;;;;5052447;28;19944;-89
2023/07/07 05:38:58;;;;;;;;;;;;;;;;;;5036294;28;20020;-88
2023/07/07 05:41:24;;;;;;;;;;;;;;;;;;5052739;28;20418;-88
2023/07/07 05:43:50;;;;;;;;;;;;;;;;;;5051128;28;19971;-88
2023/07/07 05:46:16;;;;;;;;;;;;;;;;;;5053898;28;19968;-88
2023/07/07 05:48:42;;;;;;;;;;;;;;;;;;5054041;28;20011;-88
2023/07/07 05:51:08;;;;;;;;;;;;;;;;;;5052628;28;19964;-91
2023/07/07 05:53:40;;;;;;;;;;;;;;;;;;5052308;28;20367;-87
2023/07/07 05:56:08;;;;;;;;;;;;;;;;;;5035390;28;19929;-88
2023/07/07 05:58:34;;;;;;;;;;;;;;;;;;5035567;28;19970;-87
2023/07/07 06:01:00;;;;;;;;;;;;;;;;;;5053649;28;19929;-88
2023/07/07 06:03:25;;;;;;;;;;;;;;;;;;5052094;28;20016;-88
2023/07/07 06:05:51;;;;;;;;;;;;;;;;;;5053231;28;19929;-88
2023/07/07 06:08:17;;;;;;;;;;;;;;;;;;5035290;28;19921;-88
2023/07/07 06:10:43;;;;;;;;;;;;;;;;;;5052908;28;20304;-88
2023/07/07 06:13:09;;;;;;;;;;;;;;;;;;5053464;28;19921;-87
2023/07/07 06:15:35;;;;;;;;;;;;;;;;;;5051802;28;19921;-87
2023/07/07 06:18:01;;;;;;;;;;;;;;;;;;5052934;28;19920;-88
2023/07/07 06:20:27;;;;;;;;;;;;;;;;;;5051743;28;20021;-88
2023/07/07 06:22:54;;;;;;;;;;;;;;;;;;5052180;28;19964;-91
2023/07/07 06:25:20;;;;;;;;;;;;;;;;;;5035499;28;20007;-90
2023/07/07 06:27:46;;;;;;;;;;;;;;;;;;5035040;28;19975;-89
2023/07/07 06:30:12;;;;;;;;;;;;;;;;;;5035291;28;19921;-90
2023/07/07 06:32:38;;;;;;;;;;;;;;;;;;5035276;28;19936;-90
2023/07/07 06:35:06;;;;;;;;;;;;;;;;;;5053157;28;19944;-93
2023/07/07 06:37:32;;;;;;;;;;;;;;;;;;5049425;28;19985;-89
2023/07/07 06:39:58;;;;;;;;;;;;;;;;;;5051719;28;19928;-90
2023/07/07 06:42:24;;;;;;;;;;;;;;;;;;5053444;28;19942;-89
2023/07/07 06:44:50;;;;;;;;;;;;;;;;;;5053454;28;19921;-90
2023/07/07 06:47:16;;;;;;;;;;;;;;;;;;5051619;28;20022;-89
2023/07/07 06:49:42;;;;;;;;;;;;;;;;;;5051425;28;19967;-88
2023/07/07 06:52:08;;;;;;;;;;;;;;;;;;5051903;28;20343;-89
2023/07/07 06:54:33;;;;;;;;;;;;;;;;;;5035097;28;19968;-89
2023/07/07 06:56:59;;;;;;;;;;;;;;;;;;5052111;28;19931;-89
2023/07/07 06:59:25;;;;;;;;;;;;;;;;;;5052715;28;19920;-90
2023/07/07 07:01:51;;;;;;;;;;;;;;;;;;5052879;28;20252;-92
2023/07/07 07:04:17;;;;;;;;;;;;;;;;;;5051421;28;19921;-89
2023/07/07 07:06:43;;;;;;;;;;;;;;;;;;5050883;28;19925;-89
2023/07/07 07:09:09;;;;;;;;;;;;;;;;;;5051003;28;20299;-89
2023/07/07 07:11:35;;;;;;;;;;;;;;;;;;5051136;28;20391;-89
2023/07/07 07:14:01;;;;;;;;;;;;;;;;;;5051303;28;19921;-89
2023/07/07 07:16:27;;;;;;;;;;;;;;;;;;5050659;28;19932;-89
2023/07/07 07:18:53;;;;;;;;;;;;;;;;;;5034202;28;20371;-90
2023/07/07 07:21:19;;;;;;;;;;;;;;;;;;5050823;28;19927;-88
2023/07/07 07:23:44;;;;;;;;;;;;;;;;;;5051872;28;19932;-88
2023/07/07 07:26:10;;;;;;;;;;;;;;;;;;5050923;28;19925;-87
2023/07/07 07:28:36;;;;;;;;;;;;;;;;;;5050785;28;20295;-87
2023/07/07 07:31:02;;;;;;;;;;;;;;;;;;5050742;28;19920;-87
2023/07/07 07:33:28;;;;;;;;;;;;;;;;;;5051054;28;19944;-88
2023/07/07 07:35:54;;;;;;;;;;;;;;;;;;5051969;28;19928;-87
2023/07/07 07:38:21;;;;;;;;;;;;;;;;;;5050505;28;19932;-88
2023/07/07 07:40:47;;;;;;;;;;;;;;;;;;5050590;28;20364;-90
2023/07/07 07:43:13;;;;;;;;;;;;;;;;;;5050617;28;19936;-88
2023/07/07 07:45:38;;;;;;;;;;;;;;;;;;5050540;28;19921;-88
2023/07/07 07:48:04;;;;;;;;;;;;;;;;;;5050547;28;20321;-88
2023/07/07 07:50:31;;;;;;;;;;;;;;;;;;5050409;28;20015;-88
2023/07/07 07:52:57;;;;;;;;;;;;;;;;;;5050477;28;19921;-88
2023/07/07 07:55:23;;;;;;;;;;;;;;;;;;5049933;28;19925;-90
2023/07/07 07:57:49;;;;;;;;;;;;;;;;;;5033989;28;19970;-90
2023/07/07 08:00:15;;;;;;;;;;;;;;;;;;5033972;28;19921;-89
2023/07/07 08:02:41;;;;;;;;;;;;;;;;;;5052050;28;20271;-89
2023/07/07 08:05:06;;;;;;;;;;;;;;;;;;5050380;28;20007;-89
2023/07/07 08:07:32;;;;;;;;;;;;;;;;;;5051397;28;19964;-90
2023/07/07 08:09:58;;;;;;;;;;;;;;;;;;5050728;28;20007;-92
2023/07/07 08:12:24;;;;;;;;;;;;;;;;;;5050859;28;19979;-90
2023/07/07 08:14:50;;;;;;;;;;;;;;;;;;5033409;28;19925;-90
2023/07/07 08:17:16;;;;;;;;;;;;;;;;;;5050001;28;19924;-92
2023/07/07 08:19:42;;;;;;;;;;;;;;;;;;5051423;28;19921;-92
2023/07/07 08:22:08;;;;;;;;;;;;;;;;;;5050163;28;19931;-90
2023/07/07 08:24:34;;;;;;;;;;;;;;;;;;5050698;28;19921;-90
2023/07/07 08:27:00;;;;;;;;;;;;;;;;;;5050176;28;19925;-90
2023/07/07 08:29:26;;;;;;;;;;;;;;;;;;5050384;28;19928;-91
2023/07/07 08:31:51;;;;;;;;;;;;;;;;;;5052652;28;19972;-89
2023/07/07 08:34:17;;;;;;;;;;;;;;;;;;5050803;28;20004;-92
2023/07/07 08:36:43;;;;;;;;;;;;;;;;;;5055360;28;19921;-89
2023/07/07 08:39:09;;;;;;;;;;;;;;;;;;5053715;28;19931;-88
2023/07/07 08:41:35;;;;;;;;;;;;;;;;;;5053740;28;19982;-92
2023/07/07 08:44:01;;;;;;;;;;;;;;;;;;5053439;28;20323;-90
2023/07/07 08:46:27;;;;;;;;;;;;;;;;;;5053205;28;19925;-90
2023/07/07 08:48:54;;;;;;;;;;;;;;;;;;5054685;28;20028;-90
2023/07/07 08:51:20;;;;;;;;;;;;;;;;;;5053487;28;19968;-90
2023/07/07 08:53:46;;;;;;;;;;;;;;;;;;5054682;28;19955;-90
2023/07/07 08:56:12;;;;;;;;;;;;;;;;;;5036461;28;19967;-89
2023/07/07 08:58:38;;;;;;;;;;;;;;;;;;5036676;28;19968;-90
2023/07/07 09:01:04;;;;;;;;;;;;;;;;;;5054505;28;20079;-90
2023/07/07 09:03:30;;;;;;;;;;;;;;;;;;5054449;28;20111;-90
2023/07/07 09:05:56;;;;;;;;;;;;;;;;;;5054533;28;19976;-90
2023/07/07 09:08:21;;;;;;;;;;;;;;;;;;5053188;28;19920;-90
2023/07/07 09:10:47;;;;;;;;;;;;;;;;;;5054648;28;19921;-90
2023/07/07 09:13:13;;;;;;;;;;;;;;;;;;5054282;28;20257;-91
2023/07/07 09:15:39;;;;;;;;;;;;;;;;;;5052954;28;19921;-90
2023/07/07 09:18:05;;;;;;;;;;;;;;;;;;5054095;28;20012;-89
2023/07/07 09:20:31;;;;;;;;;;;;;;;;;;5052766;28;19968;-90
2023/07/07 09:22:57;;;;;;;;;;;;;;;;;;5053036;28;20015;-91
2023/07/07 09:25:23;;;;;;;;;;;;;;;;;;5036008;28;19920;-90
2023/07/07 09:27:49;;;;;;;;;;;;;;;;;;5052590;28;19975;-89
2023/07/07 09:30:15;;;;;;;;;;;;;;;;;;5052783;28;20308;-91
2023/07/07 09:32:41;;;;;;;;;;;;;;;;;;5053325;28;19928;-90
2023/07/07 09:35:07;;;;;;;;;;;;;;;;;;5052486;28;19924;-90
2023/07/07 09:37:33;;;;;;;;;;;;;;;;;;5052326;28;19920;-91
2023/07/07 09:39:59;;;;;;;;;;;;;;;;;;5052718;28;19921;-90
2023/07/07 09:42:25;;;;;;;;;;;;;;;;;;5035714;28;19940;-89
2023/07/07 09:44:51;;;;;;;;;;;;;;;;;;5053239;28;19979;-89
2023/07/07 09:47:17;;;;;;;;;;;;;;;;;;5052272;28;19925;-89
2023/07/07 09:49:43;;;;;;;;;;;;;;;;;;5053710;28;19921;-89
2023/07/07 09:52:09;;;;;;;;;;;;;;;;;;5052265;28;20361;-90
2023/07/07 09:54:35;;;;;;;;;;;;;;;;;;5052399;28;19947;-89
2023/07/07 09:57:01;;;;;;;;;;;;;;;;;;5052041;28;20012;-90
2023/07/07 09:59:27;;;;;;;;;;;;;;;;;;5054237;28;19967;-90
2023/07/07 10:01:53;;;;;;;;;;;;;;;;;;5052060;28;19928;-90
2023/07/07 10:04:20;;;;;;;;;;;;;;;;;;5035293;28;20368;-92
2023/07/07 10:06:47;;;;;;;;;;;;;;;;;;5051652;28;19936;-89
2023/07/07 10:09:14;;;;;;;;;;;;;;;;;;5052646;28;19920;-90
2023/07/07 10:11:40;;;;;;;;;;;;;;;;;;5051548;28;20372;-90
2023/07/07 10:14:06;;;;;;;;;;;;;;;;;;5051731;28;20273;-89
2023/07/07 10:16:35;;;;;;;;;;;;;;;;;;5052708;28;20383;-90
2023/07/07 10:19:00;;;;;;;;;;;;;;;;;;5052913;28;20021;-90
2023/07/07 10:21:26;;;;;;;;;;;;;;;;;;5035095;28;19983;-90
2023/07/07 10:23:52;;;;;;;;;;;;;;;;;;5051550;28;19967;-90
2023/07/07 10:26:18;;;;;;;;;;;;;;;;;;5052592;28;20339;-90
2023/07/07 10:28:44;;;;;;;;;;;;;;;;;;5051766;28;19927;-89
2023/07/07 10:31:11;;;;;;;;;;;;;;;;;;5052267;28;20208;-90
2023/07/07 10:33:39;;;;;;;;;;;;;;;;;;5031084;28;19956;-90
2023/07/07 10:36:04;;;;;;;;;;;;;;;;;;5034748;28;19931;-90
2023/07/07 10:38:30;;;;;;;;;;;;;;;;;;5052161;28;19928;-90
2023/07/07 10:40:58;;;;;;;;;;;;;;;;;;5034587;28;20346;-90
2023/07/07 10:43:24;;;;;;;;;;;;;;;;;;5034399;28;19921;-89
2023/07/07 10:45:50;;;;;;;;;;;;;;;;;;5034384;28;19928;-89
2023/07/07 10:48:16;;;;;;;;;;;;;;;;;;5051365;28;19924;-90
2023/07/07 10:50:42;;;;;;;;;;;;;;;;;;5051282;28;19920;-90
2023/07/07 10:53:08;;;;;;;;;;;;;;;;;;5051354;28;19925;-92
2023/07/07 10:55:34;;;;;;;;;;;;;;;;;;5051336;28;20353;-92
2023/07/07 10:58:00;;;;;;;;;;;;;;;;;;5050910;28;19921;-91
2023/07/07 11:00:26;;;;;;;;;;;;;;;;;;5052188;28;19925;-90
2023/07/07 11:02:52;;;;;;;;;;;;;;;;;;5051095;28;19924;-92
2023/07/07 11:05:17;;;;;;;;;;;;;;;;;;5052701;28;19925;-91
2023/07/07 11:07:43;;;;;;;;;;;;;;;;;;5035361;28;20022;-91
2023/07/07 11:10:09;;;;;;;;;;;;;;;;;;5035783;28;19975;-92
2023/07/07 11:12:35;;;;;;;;;;;;;;;;;;5035546;28;20431;-91
2023/07/07 11:15:01;;;;;;;;;;;;;;;;;;5050859;28;20017;-91
2023/07/07 11:17:27;;;;;;;;;;;;;;;;;;5034981;28;19921;-90
2023/07/07 11:19:53;;;;;;;;;;;;;;;;;;5052048;28;20262;-91
2023/07/07 11:22:19;;;;;;;;;;;;;;;;;;5051914;28;19924;-91
2023/07/07 11:24:45;;;;;;;;;;;;;;;;;;5035120;28;19967;-91
2023/07/07 11:27:11;;;;;;;;;;;;;;;;;;5051744;28;19925;-91
2023/07/07 11:29:37;;;;;;;;;;;;;;;;;;5051762;28;19927;-91
2023/07/07 11:32:03;;;;;;;;;;;;;;;;;;5051969;28;20019;-92
2023/07/07 11:34:29;;;;;;;;;;;;;;;;;;5035146;28;19929;-90
2023/07/07 11:36:54;;;;;;;;;;;;;;;;;;5051413;28;19921;-90
2023/07/07 11:39:21;;;;;;;;;;;;;;;;;;5051433;28;19974;-90
2023/07/07 11:41:46;;;;;;;;;;;;;;;;;;5051419;28;19932;-90
2023/07/07 11:44:12;;;;;;;;;;;;;;;;;;5034754;28;19921;-91
2023/07/07 11:46:38;;;;;;;;;;;;;;;;;;5051350;28;19925;-90
2023/07/07 11:49:04;;;;;;;;;;;;;;;;;;5051536;28;20292;-89
2023/07/07 11:51:31;;;;;;;;;;;;;;;;;;5034573;28;19921;-88
2023/07/07 11:53:58;;;;;;;;;;;;;;;;;;5051426;28;19928;-90
2023/07/07 11:56:24;;;;;;;;;;;;;;;;;;5052570;28;20399;-89
2023/07/07 11:58:50;;;;;;;;;;;;;;;;;;5051640;28;19921;-91
2023/07/07 12:01:16;;;;;;;;;;;;;;;;;;5034697;28;19925;-89
2023/07/07 12:03:42;;;;;;;;;;;;;;;;;;5052522;28;19921;-91
2023/07/07 12:06:08;;;;;;;;;;;;;;;;;;5034236;28;19932;-89
2023/07/07 12:08:35;;;;;;;;;;;;;;;;;;5052271;28;19982;-90
2023/07/07 12:11:01;;;;;;;;;;;;;;;;;;5038332;28;19928;-90
2023/07/07 12:13:27;;;;;;;;;;;;;;;;;;5056581;28;19921;-92
2023/07/07 12:15:53;;;;;;;;;;;;;;;;;;5038373;28;20269;-89
2023/07/07 12:18:19;;;;;;;;;;;;;;;;;;5054794;28;19921;-91
2023/07/07 12:20:45;;;;;;;;;;;;;;;;;;5054295;28;19928;-92
2023/07/07 12:23:11;;;;;;;;;;;;;;;;;;5054332;28;20295;-91
2023/07/07 12:25:37;;;;;;;;;;;;;;;;;;5053933;28;20274;-89
2023/07/07 12:28:04;;;;;;;;;;;;;;;;;;5055319;28;20092;-90
2023/07/07 12:30:33;;;;;;;;;;;;;;;;;;5055534;28;19932;-91
2023/07/07 12:32:59;;;;;;;;;;;;;;;;;;5055479;28;20394;-91
2023/07/07 12:35:26;;;;;;;;;;;;;;;;;;5055392;28;19921;-91
2023/07/07 12:37:52;;;;;;;;;;;;;;;;;;5053947;28;19921;-91
2023/07/07 12:40:18;;;;;;;;;;;;;;;;;;5053648;28;20015;-91
2023/07/07 12:42:44;;;;;;;;;;;;;;;;;;5037259;28;19968;-91
2023/07/07 12:45:10;;;;;;;;;;;;;;;;;;5053679;28;20020;-90
2023/07/07 12:47:36;;;;;;;;;;;;;;;;;;5053346;28;20012;-90
2023/07/07 12:50:02;;;;;;;;;;;;;;;;;;5053612;28;19920;-91
2023/07/07 12:52:28;;;;;;;;;;;;;;;;;;5055028;28;19924;-90
2023/07/07 12:54:54;;;;;;;;;;;;;;;;;;5053197;28;19954;-89
2023/07/07 12:57:19;;;;;;;;;;;;;;;;;;5053163;28;20280;-89
2023/07/07 12:59:45;;;;;;;;;;;;;;;;;;5053720;28;19928;-90
2023/07/07 13:02:11;;;;;;;;;;;;;;;;;;5054631;28;20265;-90
2023/07/07 13:04:37;;;;;;;;;;;;;;;;;;5053324;28;19925;-90
2023/07/07 13:07:03;;;;;;;;;;;;;;;;;;5054238;28;19968;-89
2023/07/07 13:09:29;;;;;;;;;;;;;;;;;;5053107;28;20325;-90
2023/07/07 13:11:55;;;;;;;;;;;;;;;;;;5053161;28;19990;-89
2023/07/07 13:14:21;;;;;;;;;;;;;;;;;;5036125;28;20288;-88
2023/07/07 13:16:47;;;;;;;;;;;;;;;;;;5052847;28;19925;-88
2023/07/07 13:19:13;;;;;;;;;;;;;;;;;;5032607;28;19952;-89
2023/07/07 13:21:39;;;;;;;;;;;;;;;;;;5033329;28;19928;-90
2023/07/07 13:24:05;;;;;;;;;;;;;;;;;;5032864;28;19937;-88
2023/07/07 13:26:30;;;;;;;;;;;;;;;;;;5034204;28;20047;-89
2023/07/07 13:28:56;;;;;;;;;;;;;;;;;;5033026;28;19925;-90
2023/07/07 13:31:22;;;;;;;;;;;;;;;;;;5032966;28;19929;-90
2023/07/07 13:33:48;;;;;;;;;;;;;;;;;;5032456;28;20331;-90
2023/07/07 13:36:14;;;;;;;;;;;;;;;;;;5032359;28;20088;-90
2023/07/07 13:38:40;;;;;;;;;;;;;;;;;;5032709;28;19924;-90
2023/07/07 13:41:06;;;;;;;;;;;;;;;;;;5032566;28;20598;-91
2023/07/07 13:43:32;;;;;;;;;;;;;;;;;;5032553;28;19921;-90
2023/07/07 13:45:58;;;;;;;;;;;;;;;;;;5032166;28;19928;-90
2023/07/07 13:48:24;;;;;;;;;;;;;;;;;;5015633;28;20020;-90
2023/07/07 13:50:50;;;;;;;;;;;;;;;;;;5032269;28;20436;-92
2023/07/07 13:53:16;;;;;;;;;;;;;;;;;;5032079;28;19995;-88
2023/07/07 13:55:42;;;;;;;;;;;;;;;;;;5031940;28;19925;-87
2023/07/07 13:58:08;;;;;;;;;;;;;;;;;;5032094;28;19921;-87
2023/07/07 14:00:34;;;;;;;;;;;;;;;;;;5031973;28;19925;-88
2023/07/07 14:03:00;;;;;;;;;;;;;;;;;;5033398;28;20016;-88
2023/07/07 14:05:25;;;;;;;;;;;;;;;;;;5032111;28;20303;-89
2023/07/07 14:07:51;;;;;;;;;;;;;;;;;;5033220;28;19974;-88
2023/07/07 14:10:17;;;;;;;;;;;;;;;;;;5031823;28;19974;-89
2023/07/07 14:12:43;;;;;;;;;;;;;;;;;;5031965;28;20296;-91
2023/07/07 14:15:09;;;;;;;;;;;;;;;;;;5015182;28;19937;-91
2023/07/07 14:17:37;;;;;;;;;;;;;;;;;;5032051;28;19921;-91
2023/07/07 14:20:03;;;;;;;;;;;;;;;;;;5015722;28;19944;-92
2023/07/07 14:22:29;;;;;;;;;;;;;;;;;;5015437;28;19937;-91
2023/07/07 14:24:55;;;;;;;;;;;;;;;;;;5016025;28;19921;-92
2023/07/07 14:27:21;;;;;;;;;;;;;;;;;;5033226;28;19925;-92
2023/07/07 14:29:47;;;;;;;;;;;;;;;;;;5031572;28;19948;-89
2023/07/07 14:32:13;;;;;;;;;;;;;;;;;;5031646;28;19940;-89
2023/07/07 14:34:39;;;;;;;;;;;;;;;;;;5014964;28;20449;-90
2023/07/07 14:37:05;;;;;;;;;;;;;;;;;;5015048;28;19982;-89
2023/07/07 14:39:31;;;;;;;;;;;;;;;;;;5031595;28;19955;-91
2023/07/07 14:41:57;;;;;;;;;;;;;;;;;;5031214;28;19921;-90
2023/07/07 14:44:23;;;;;;;;;;;;;;;;;;5031154;28;20292;-90
2023/07/07 14:46:49;;;;;;;;;;;;;;;;;;5030841;28;20289;-90
2023/07/07 14:49:15;;;;;;;;;;;;;;;;;;5030923;28;19928;-90
2023/07/07 14:51:41;;;;;;;;;;;;;;;;;;5014531;28;19925;-90
2023/07/07 14:54:07;;;;;;;;;;;;;;;;;;5031002;28;19994;-89
2023/07/07 14:56:33;;;;;;;;;;;;;;;;;;5014306;28;19925;-89
2023/07/07 14:58:59;;;;;;;;;;;;;;;;;;5030786;28;19971;-89
2023/07/07 15:01:25;;;;;;;;;;;;;;;;;;5014236;28;19925;-89
2023/07/07 15:03:51;;;;;;;;;;;;;;;;;;5014120;28;19921;-90
2023/07/07 15:06:17;;;;;;;;;;;;;;;;;;5030851;28;19925;-89
2023/07/07 15:08:42;;;;;;;;;;;;;;;;;;5032321;28;20372;-90
2023/07/07 15:11:08;;;;;;;;;;;;;;;;;;5031241;28;20017;-90
2023/07/07 15:13:34;;;;;;;;;;;;;;;;;;5031553;28;19921;-91
2023/07/07 15:16:00;;;;;;;;;;;;;;;;;;5015901;28;20007;-91
2023/07/07 15:18:26;;;;;;;;;;;;;;;;;;5031117;28;19925;-87
2023/07/07 15:20:52;;;;;;;;;;;;;;;;;;5031290;28;20099;-90
2023/07/07 15:23:18;;;;;;;;;;;;;;;;;;5014601;28;20096;-90
2023/07/07 15:25:44;;;;;;;;;;;;;;;;;;5031130;28;19928;-90
2023/07/07 15:28:10;;;;;;;;;;;;;;;;;;5014729;28;19932;-90
2023/07/07 15:30:36;;;;;;;;;;;;;;;;;;5014600;28;20380;-91
2023/07/07 15:33:01;;;;;;;;;;;;;;;;;;5014898;28;19921;-91
2023/07/07 15:35:27;;;;;;;;;;;;;;;;;;5031119;28;19921;-89
2023/07/07 15:37:53;;;;;;;;;;;;;;;;;;5031883;28;20337;-90
2023/07/07 15:40:19;;;;;;;;;;;;;;;;;;5014070;28;20400;-88
2023/07/07 15:42:45;;;;;;;;;;;;;;;;;;5014226;28;19921;-88
2023/07/07 15:45:11;;;;;;;;;;;;;;;;;;5034683;28;19928;-91
2023/07/07 15:47:37;;;;;;;;;;;;;;;;;;5035807;28;19929;-90
2023/07/07 15:50:03;;;;;;;;;;;;;;;;;;5034829;28;19947;-89
2023/07/07 15:52:29;;;;;;;;;;;;;;;;;;5034311;28;19921;-87
2023/07/07 15:54:55;;;;;;;;;;;;;;;;;;5034292;28;19921;-90
2023/07/07 15:57:21;;;;;;;;;;;;;;;;;;5017712;28;20399;-89
2023/07/07 15:59:47;;;;;;;;;;;;;;;;;;5017911;28;19982;-88
2023/07/07 16:02:13;;;;;;;;;;;;;;;;;;5034416;28;20315;-90
2023/07/07 16:04:39;;;;;;;;;;;;;;;;;;5035886;28;19921;-89
2023/07/07 16:07:05;;;;;;;;;;;;;;;;;;5034041;28;19929;-88
2023/07/07 16:09:31;;;;;;;;;;;;;;;;;;5035527;28;19925;-89
2023/07/07 16:11:56;;;;;;;;;;;;;;;;;;5017498;28;20376;-89
2023/07/07 16:14:22;;;;;;;;;;;;;;;;;;5017410;28;19922;-90
2023/07/07 16:16:48;;;;;;;;;;;;;;;;;;5033892;28;19931;-88
2023/07/07 16:19:14;;;;;;;;;;;;;;;;;;5033693;28;19943;-89
2023/07/07 16:21:40;;;;;;;;;;;;;;;;;;5033925;28;19930;-89
2023/07/07 16:24:06;;;;;;;;;;;;;;;;;;5034040;28;19925;-88
2023/07/07 16:26:32;;;;;;;;;;;;;;;;;;5034875;28;19932;-87
2023/07/07 16:28:58;;;;;;;;;;;;;;;;;;5035005;28;19975;-87
2023/07/07 16:31:24;;;;;;;;;;;;;;;;;;5017053;28;19921;-87
2023/07/07 16:33:50;;;;;;;;;;;;;;;;;;5034927;28;20262;-87
2023/07/07 16:36:16;;;;;;;;;;;;;;;;;;5034922;28;19975;-87